首页
METAR-TAF:

METAR-TAF

机场 :

胡志明, 越南

新山一國際機場

纬度: 10-49N, 经度: 106-40E, 海拔: 19米

当前天气观测

该预报发布于16分钟前的05:30 UTC
风速3节,风向多变
温度 34°C
湿度 50%
气压 1009 hPa
能见度10公里或以上
散云层高于2000英尺

METAR: VVTS 250530Z VRB03KT 9999 SCT020 34/22 Q1009 NOSIG

时间: 12:46 (05:46 UTC)

预报

该预报发布于46分钟前的05:00 UTC
预报有效从25日的 06点(UTC)到 26日的 12点(UTC)
风速9节,风向东南
能见度10公里或以上
少量云层高于2000英尺
成为
从 25日的 18点(UTC)到 25日的 19点(UTC)
风速6节,风向东北
成为
从 26日的 08点(UTC)到 26日的 09点(UTC)
风速10节,风向南转南东

TAF: VVTS 250500Z 2506/2612 13009KT 9999 FEW020 BECMG 2518/2519 05006KT BECMG 2608/2609 15010KT

超过4000个机场的气象观测和天气预报(METAR&TAF报告)。

可查询的气象台以黄色和红色小点在地图上表示。

将鼠标移到小点上方,可查看气象台名称。

然后点击查看天气观测和预报。

如需切换地图:点击带黑十字的绿色按钮放大地图;点击带横线的绿色按钮缩小地图;或者点击绿色箭头查看邻近地区的地图。


METAR-TAF: